Terminal Aerodrome Forecast
Issued by NWS

Home | Current Version | Previous Version | Text Only | Print | Product List | Glossary On
Versions: 1 2 3 4 5 6 7 8 9 10 11 12 13 14 15 16 17 18 19 20 21 22 23 24 25 26 27 28 29
000
FTUS43 KILX 221731
TAFDEC
TAF
KDEC 221731Z 2218/2318 20009KT P6SM BKN013
     FM230000 19008KT P6SM SCT150
     FM230600 21009KT 3SM BR BKN080
     FM230800 23006KT 1 1/2SM BR BKN040
     FM231100 32004KT 1SM BR BKN003
      TEMPO 2311/2314 1/2SM FG
     FM231600 10006KT 4SM BR BKN020=

USA.gov is the U.S. government's official web portal to all federal, state and local government web resources and services.